createdAt,value
2024-05-09T00:00:35.458Z,100279.20
2024-05-09T00:03:07.071Z,100278.70
2024-05-09T00:05:34.165Z,100279.65
2024-05-09T00:08:01.223Z,100278.16
2024-05-09T00:10:35.563Z,100280.52
2024-05-09T00:13:04.982Z,100281.80
2024-05-09T00:15:33.010Z,100282.52
2024-05-09T00:17:59.652Z,100282.61
2024-05-09T00:20:35.067Z,100281.71
2024-05-09T00:23:06.780Z,100286.00
2024-05-09T00:25:33.815Z,100288.95
2024-05-09T00:28:00.343Z,100288.95
2024-05-09T00:30:33.590Z,100287.28
2024-05-09T00:33:04.046Z,100287.30
2024-05-09T00:35:31.718Z,100290.05
2024-05-09T00:37:58.434Z,100291.76
2024-05-09T00:54:02.492Z,100294.77
2024-05-09T00:56:29.388Z,100292.11
2024-05-09T00:58:56.235Z,100293.81
2024-05-09T01:01:23.358Z,100292.31
2024-05-09T01:03:51.328Z,100296.68
2024-05-09T01:06:20.270Z,100301.06
2024-05-09T01:08:47.426Z,100298.67
2024-05-09T01:11:16.223Z,100301.54
2024-05-09T01:13:44.908Z,100298.75
2024-05-09T01:16:12.947Z,100298.95
2024-05-09T01:18:40.065Z,100298.80
2024-05-09T01:21:09.268Z,100300.13
2024-05-09T01:23:36.343Z,100295.73
2024-05-09T01:26:03.253Z,100299.89
2024-05-09T01:28:30.078Z,100297.89
2024-05-09T01:30:56.722Z,100298.44
2024-05-09T01:33:23.551Z,100305.14
2024-05-09T01:35:50.314Z,100304.98
2024-05-09T01:38:19.665Z,100308.17
2024-05-09T01:40:48.240Z,100306.70
2024-05-09T01:43:15.942Z,100306.52
2024-05-09T01:45:42.528Z,100311.81
2024-05-09T01:48:09.621Z,100317.04
2024-05-09T01:50:40.491Z,100319.07
2024-05-09T01:53:14.376Z,100318.48
2024-05-09T01:55:41.823Z,100316.30
2024-05-09T01:58:09.176Z,100321.63
2024-05-09T02:00:40.011Z,100321.85
2024-05-09T02:03:10.037Z,100327.37
2024-05-09T02:05:37.528Z,100326.28
2024-05-09T02:08:05.460Z,100327.13
2024-05-09T02:10:33.451Z,100330.30
2024-05-09T02:13:00.874Z,100331.16
2024-05-09T02:15:27.815Z,100335.29
2024-05-09T02:17:54.844Z,100341.09
2024-05-09T02:20:30.279Z,100342.38
2024-05-09T02:23:04.872Z,100344.61
2024-05-09T02:25:32.518Z,100349.41
2024-05-09T02:27:59.519Z,100356.26
2024-05-09T02:30:36.098Z,100355.29
2024-05-09T02:33:07.919Z,100357.40
2024-05-09T02:35:36.187Z,100358.02
2024-05-09T02:38:03.323Z,100360.45
2024-05-09T02:40:36.703Z,100359.92
2024-05-09T02:43:06.928Z,100362.86
2024-05-09T02:45:33.978Z,100371.96
2024-05-09T02:48:01.567Z,100374.52
2024-05-09T02:50:37.075Z,100374.67
2024-05-09T02:53:07.424Z,100379.91
2024-05-09T02:55:34.816Z,100383.35
2024-05-09T02:58:01.540Z,100386.76
2024-05-09T03:00:36.776Z,100392.04
2024-05-09T03:03:07.641Z,100393.30
2024-05-09T03:05:35.188Z,100393.73
2024-05-09T03:08:02.127Z,100398.98
2024-05-09T03:10:34.512Z,100400.84
2024-05-09T03:13:12.196Z,100397.77
2024-05-09T03:15:40.598Z,100401.20
2024-05-09T03:18:08.577Z,100400.55
2024-05-09T03:20:36.910Z,100403.05
2024-05-09T03:23:08.054Z,100403.25
2024-05-09T03:25:36.101Z,100407.41
2024-05-09T03:28:03.404Z,100405.64
2024-05-09T03:30:39.341Z,100407.56
2024-05-09T03:33:15.549Z,100413.16
2024-05-09T03:35:43.736Z,100415.60
2024-05-09T03:38:10.554Z,100421.16
2024-05-09T03:40:46.857Z,100418.77
2024-05-09T03:43:14.396Z,100421.30
2024-05-09T03:45:44.514Z,100421.64
2024-05-09T03:48:11.461Z,100423.60
2024-05-09T03:50:38.632Z,100424.67
2024-05-09T03:53:05.806Z,100428.05
2024-05-09T03:55:32.502Z,100433.09
2024-05-09T03:57:59.577Z,100432.55
2024-05-09T04:00:34.885Z,100433.32
2024-05-09T04:03:11.277Z,100436.89
2024-05-09T04:05:42.640Z,100437.48
2024-05-09T04:08:13.011Z,100439.25
2024-05-09T04:10:40.509Z,100443.66
2024-05-09T04:13:07.193Z,100442.96
2024-05-09T04:15:33.835Z,100439.48
2024-05-09T04:18:01.330Z,100434.16
2024-05-09T04:20:36.540Z,100436.45
2024-05-09T04:23:08.244Z,100438.12
2024-05-09T04:25:36.953Z,100436.48
2024-05-09T04:28:03.911Z,100433.09
2024-05-09T04:30:37.442Z,100433.01
2024-05-09T04:33:09.400Z,100438.40
2024-05-09T04:35:38.906Z,100433.21
2024-05-09T04:38:06.382Z,100436.15
2024-05-09T04:40:36.173Z,100443.90
2024-05-09T04:43:13.332Z,100444.06
2024-05-09T04:45:40.659Z,100444.21
2024-05-09T04:48:08.235Z,100451.73
2024-05-09T04:50:38.322Z,100451.90
2024-05-09T04:53:08.474Z,100444.63
2024-05-09T04:55:36.686Z,100446.98
2024-05-09T04:58:03.509Z,100443.35
2024-05-09T05:00:36.163Z,100443.73
2024-05-09T05:03:08.055Z,100449.26
2024-05-09T05:05:42.605Z,100446.31
2024-05-09T05:08:17.950Z,100449.52
2024-05-09T05:10:46.282Z,100454.23
2024-05-09T05:13:19.972Z,100454.27
2024-05-09T05:15:48.798Z,100454.29
2024-05-09T05:18:16.091Z,100449.34
2024-05-09T05:20:43.246Z,100447.31
2024-05-09T05:23:11.662Z,100450.48
2024-05-09T05:25:40.043Z,100450.86
2024-05-09T05:28:06.878Z,100453.74
2024-05-09T05:30:42.534Z,100461.28
2024-05-09T05:33:10.738Z,100458.96
2024-05-09T05:35:38.130Z,100464.14
2024-05-09T05:38:06.273Z,100457.98
2024-05-09T05:40:36.799Z,100464.90
2024-05-09T05:43:05.570Z,100469.11
2024-05-09T05:45:32.787Z,100466.32
2024-05-09T05:48:02.285Z,100471.35
2024-05-09T05:50:35.473Z,100473.27
2024-05-09T05:53:08.212Z,100474.72
2024-05-09T05:55:40.203Z,100475.33
2024-05-09T05:58:10.845Z,100475.03
2024-05-09T06:00:40.083Z,100476.91
2024-05-09T06:03:09.266Z,100473.83
2024-05-09T06:05:39.236Z,100475.23
2024-05-09T06:08:06.555Z,100472.56
2024-05-09T06:10:38.361Z,100471.79
2024-05-09T06:13:10.500Z,100470.11
2024-05-09T06:15:37.499Z,100473.13
2024-05-09T06:18:08.069Z,100475.45
2024-05-09T06:20:37.681Z,100473.51
2024-05-09T06:23:06.487Z,100472.33
2024-05-09T06:25:37.032Z,100472.71
2024-05-09T06:28:04.156Z,100473.19
2024-05-09T06:30:38.631Z,100472.39
2024-05-09T06:33:10.407Z,100470.50
2024-05-09T06:35:39.377Z,100471.02
2024-05-09T06:38:08.542Z,100474.41
2024-05-09T06:40:38.538Z,100475.33
2024-05-09T06:43:11.439Z,100473.27
2024-05-09T06:45:39.435Z,100469.88
2024-05-09T06:48:07.110Z,100473.20
2024-05-09T06:50:37.869Z,100474.05
2024-05-09T06:53:06.394Z,100474.91
2024-05-09T06:55:33.453Z,100478.36
2024-05-09T06:58:00.135Z,100480.65
2024-05-09T07:00:34.649Z,100478.61
2024-05-09T07:03:09.258Z,100475.41
2024-05-09T07:05:37.089Z,100471.20
2024-05-09T07:08:04.725Z,100469.94
2024-05-09T07:10:35.186Z,100468.91
2024-05-09T07:13:02.937Z,100472.34
2024-05-09T07:15:30.911Z,100478.70
2024-05-09T07:17:57.930Z,100474.46
2024-05-09T07:20:32.457Z,100471.67
2024-05-09T07:23:02.948Z,100472.15
2024-05-09T07:25:30.291Z,100470.74
2024-05-09T07:27:57.230Z,100472.39
2024-05-09T07:30:30.837Z,100474.76
2024-05-09T07:33:01.433Z,100475.59
2024-05-09T07:35:29.798Z,100475.45
2024-05-09T07:37:56.906Z,100478.09
2024-05-09T07:40:32.573Z,100474.23
2024-05-09T07:43:06.973Z,100467.36
2024-05-09T07:52:32.413Z,100467.81
2024-05-09T07:53:39.650Z,100466.84
2024-05-09T07:56:11.981Z,100468.59
2024-05-09T07:58:45.593Z,100464.92
2024-05-09T08:01:12.981Z,100461.23
2024-05-09T08:03:39.985Z,100464.00
2024-05-09T08:06:06.747Z,100465.23
2024-05-09T08:08:33.603Z,100465.31
2024-05-09T08:11:01.596Z,100468.52
2024-05-09T08:13:28.210Z,100467.30
2024-05-09T08:15:54.900Z,100470.73
2024-05-09T08:18:21.665Z,100473.04
2024-05-09T08:20:48.967Z,100469.71
2024-05-09T08:23:15.678Z,100470.61
2024-05-09T08:25:42.391Z,100465.39
2024-05-09T08:28:10.459Z,100466.70
2024-05-09T08:30:38.278Z,100466.39
2024-05-09T08:33:06.580Z,100460.98
2024-05-09T08:35:34.313Z,100454.64
2024-05-09T08:38:02.764Z,100449.48
2024-05-09T08:40:35.320Z,100450.96
2024-05-09T08:43:06.898Z,100450.85
2024-05-09T08:45:35.050Z,100447.82
2024-05-09T08:48:05.248Z,100455.33
2024-05-09T08:50:38.442Z,100452.61
2024-05-09T08:53:07.540Z,100454.56
2024-05-09T08:55:35.480Z,100448.35
2024-05-09T08:58:03.485Z,100445.94
2024-05-09T09:00:36.726Z,100445.77
2024-05-09T09:03:06.453Z,100446.65
2024-05-09T09:05:33.806Z,100446.63
2024-05-09T09:08:10.016Z,100445.79
2024-05-09T09:10:38.102Z,100447.05
2024-05-09T09:13:08.936Z,100445.05
2024-05-09T09:15:50.481Z,100442.48
2024-05-09T09:18:18.300Z,100441.02
2024-05-09T09:20:45.502Z,100437.11
2024-05-09T09:23:12.294Z,100434.06
2024-05-09T09:25:39.660Z,100430.92
2024-05-09T09:28:06.918Z,100433.89
2024-05-09T09:30:37.403Z,100431.45
2024-05-09T09:33:06.091Z,100435.21
2024-05-09T09:35:33.876Z,100428.14
2024-05-09T09:38:04.237Z,100424.69
2024-05-09T09:40:35.928Z,100426.59
2024-05-09T09:43:07.301Z,100432.00
2024-05-09T09:45:34.267Z,100425.67
2024-05-09T09:48:00.992Z,100424.42
2024-05-09T09:50:33.861Z,100417.73
2024-05-09T09:53:01.855Z,100410.19
2024-05-09T09:55:32.177Z,100407.17
2024-05-09T09:57:58.888Z,100407.88
2024-05-09T10:00:32.058Z,100410.27
2024-05-09T10:03:00.267Z,100406.42
2024-05-09T10:05:27.448Z,100402.23
2024-05-09T10:07:54.237Z,100400.36
2024-05-09T10:10:31.495Z,100395.77
2024-05-09T10:13:03.353Z,100391.70
2024-05-09T10:15:45.444Z,100389.62
2024-05-09T10:18:12.600Z,100389.60
2024-05-09T10:20:46.017Z,100390.80
2024-05-09T10:23:43.340Z,100387.45
2024-05-09T10:26:10.744Z,100387.95
2024-05-09T10:28:42.089Z,100381.85
2024-05-09T10:31:13.133Z,100377.27
2024-05-09T10:33:47.485Z,100373.23
2024-05-09T10:36:19.648Z,100375.76
2024-05-09T10:38:46.269Z,100371.77
2024-05-09T10:41:12.849Z,100374.66
2024-05-09T10:43:40.696Z,100371.02
2024-05-09T10:46:07.606Z,100369.55
2024-05-09T10:48:34.513Z,100369.14
2024-05-09T10:51:01.170Z,100368.70
2024-05-09T10:53:27.783Z,100367.19
2024-05-09T10:56:01.282Z,100370.75
2024-05-09T10:58:28.200Z,100368.18
2024-05-09T11:00:57.799Z,100363.71
2024-05-09T11:03:24.742Z,100362.73
2024-05-09T11:05:51.861Z,100363.55
2024-05-09T11:08:24.749Z,100359.80
2024-05-09T11:10:52.416Z,100355.79
2024-05-09T11:13:32.411Z,100359.44
2024-05-09T11:15:59.725Z,100353.96
2024-05-09T11:18:29.793Z,100354.27
2024-05-09T11:20:58.776Z,100361.80
2024-05-09T11:23:26.696Z,100359.74
2024-05-09T11:25:57.650Z,100356.69
2024-05-09T11:28:26.497Z,100351.47
2024-05-09T11:30:53.126Z,100345.23
2024-05-09T11:33:20.004Z,100331.98
2024-05-09T11:35:46.896Z,100337.03
2024-05-09T11:38:13.556Z,100340.98
2024-05-09T11:40:41.527Z,100337.21
2024-05-09T11:43:08.260Z,100336.32
2024-05-09T11:45:34.897Z,100338.83
2024-05-09T12:00:24.583Z,100335.65
2024-05-09T12:02:59.610Z,100332.30
2024-05-09T12:05:26.739Z,100325.16
2024-05-09T12:07:54.568Z,100321.13
2024-05-09T12:10:31.966Z,100320.88
2024-05-09T12:13:01.323Z,100318.81
2024-05-09T12:15:28.057Z,100315.06
2024-05-09T12:17:57.325Z,100311.06
2024-05-09T12:20:34.374Z,100307.19
2024-05-09T12:23:04.654Z,100301.05
2024-05-09T12:25:31.906Z,100301.21
2024-05-09T12:27:58.715Z,100302.75
2024-05-09T12:30:35.001Z,100301.95
2024-05-09T12:33:07.418Z,100295.21
2024-05-09T12:35:34.485Z,100299.13
2024-05-09T12:38:01.180Z,100294.06
2024-05-09T12:40:35.637Z,100289.51
2024-05-09T12:43:06.966Z,100289.55
2024-05-09T12:45:34.253Z,100283.74
2024-05-09T12:48:01.334Z,100281.70
2024-05-09T12:50:33.034Z,100274.48
2024-05-09T12:53:02.164Z,100273.52
2024-05-09T12:55:33.462Z,100273.71
2024-05-09T12:58:06.943Z,100264.90
2024-05-09T13:00:34.699Z,100265.95
2024-05-09T13:03:01.775Z,100265.97
2024-05-09T13:05:29.345Z,100266.55
2024-05-09T13:07:56.796Z,100265.05
2024-05-09T13:10:31.061Z,100260.31
2024-05-09T13:13:00.805Z,100257.13
2024-05-09T13:15:28.307Z,100255.39
2024-05-09T13:17:57.924Z,100254.90
2024-05-09T13:20:32.693Z,100252.70
2024-05-09T13:23:02.717Z,100247.73
2024-05-09T13:25:29.742Z,100246.60
2024-05-09T13:27:57.307Z,100251.55
2024-05-09T13:30:30.007Z,100251.59
2024-05-09T13:33:06.471Z,100251.65
2024-05-09T13:35:35.667Z,100248.67
2024-05-09T13:38:02.984Z,100246.89
2024-05-09T13:40:34.332Z,100246.48
2024-05-09T13:43:06.177Z,100236.72
2024-05-09T13:45:33.986Z,100235.53
2024-05-09T13:48:02.455Z,100234.90
2024-05-09T13:50:34.437Z,100235.43
2024-05-09T13:53:04.759Z,100232.61
2024-05-09T13:55:32.124Z,100230.11
2024-05-09T13:57:58.920Z,100226.13
2024-05-09T14:00:37.959Z,100227.02
2024-05-09T14:03:11.908Z,100235.42
2024-05-09T14:05:38.921Z,100233.16
2024-05-09T14:08:06.046Z,100226.89
2024-05-09T14:10:33.396Z,100222.02
2024-05-09T14:13:00.793Z,100219.49
2024-05-09T14:15:27.860Z,100218.02
2024-05-09T14:17:54.908Z,100219.83
2024-05-09T14:22:51.173Z,100219.51
2024-05-09T14:25:17.981Z,100219.58
2024-05-09T14:27:44.687Z,100214.85
2024-05-09T14:30:18.340Z,100218.29
2024-05-09T14:32:53.161Z,100216.17
2024-05-09T14:35:20.186Z,100216.42
2024-05-09T14:37:46.991Z,100215.55
2024-05-09T14:40:30.287Z,100211.46
2024-05-09T14:43:03.139Z,100218.70
2024-05-09T14:45:32.287Z,100212.81
2024-05-09T14:47:59.160Z,100210.60
2024-05-09T14:50:34.635Z,100215.31
2024-05-09T14:53:05.939Z,100213.29
2024-05-09T14:55:35.770Z,100212.75
2024-05-09T14:58:03.759Z,100211.67
2024-05-09T15:00:35.876Z,100215.77
2024-05-09T15:03:05.213Z,100208.99
2024-05-09T15:05:32.061Z,100205.98
2024-05-09T15:07:59.225Z,100198.56
2024-05-09T15:10:33.851Z,100193.16
2024-05-09T15:13:03.800Z,100188.25
2024-05-09T15:15:30.918Z,100198.23
2024-05-09T15:17:57.938Z,100194.41
2024-05-09T15:20:32.969Z,100192.10
2024-05-09T15:23:02.898Z,100193.39
2024-05-09T15:25:30.304Z,100196.06
2024-05-09T15:27:57.439Z,100192.82
2024-05-09T15:30:30.400Z,100195.88
2024-05-09T15:33:00.699Z,100192.80
2024-05-09T15:35:27.850Z,100192.10
2024-05-09T15:37:54.892Z,100190.27
2024-05-09T15:40:30.914Z,100191.73
2024-05-09T15:43:05.786Z,100192.45
2024-05-09T15:45:32.868Z,100190.89
2024-05-09T15:47:59.883Z,100191.02
2024-05-09T15:50:35.794Z,100188.35
2024-05-09T15:53:08.304Z,100187.32
2024-05-09T15:55:36.020Z,100185.60
2024-05-09T15:58:03.436Z,100184.50
2024-05-09T16:00:38.725Z,100187.03
2024-05-09T16:03:10.108Z,100183.79
2024-05-09T16:05:37.635Z,100181.73
2024-05-09T16:08:05.542Z,100185.14
2024-05-09T16:10:33.967Z,100183.91
2024-05-09T16:13:02.398Z,100181.09
2024-05-09T16:15:30.257Z,100175.10
2024-05-09T16:17:57.217Z,100173.04
2024-05-09T16:22:54.172Z,100174.95
2024-05-09T16:25:20.906Z,100174.25
2024-05-09T16:27:47.854Z,100171.29
2024-05-09T16:30:21.352Z,100175.59
2024-05-09T16:32:55.968Z,100176.60
2024-05-09T16:35:22.734Z,100178.48
2024-05-09T16:37:49.565Z,100175.02
2024-05-09T16:40:25.242Z,100170.49
2024-05-09T16:43:03.826Z,100172.33
2024-05-09T16:45:30.759Z,100170.81
2024-05-09T16:47:58.928Z,100171.40
2024-05-09T16:50:31.064Z,100175.90
2024-05-09T16:53:00.243Z,100170.41
2024-05-09T16:55:27.172Z,100171.81
2024-05-09T16:57:54.296Z,100172.77
2024-05-09T17:00:31.238Z,100168.99
2024-05-09T17:03:07.455Z,100168.64
2024-05-09T17:05:34.901Z,100169.24
2024-05-09T17:08:02.257Z,100167.65
2024-05-09T17:10:33.119Z,100169.02
2024-05-09T17:13:06.684Z,100172.64
2024-05-09T17:15:35.666Z,100169.95
2024-05-09T17:18:03.437Z,100169.96
2024-05-09T17:20:34.586Z,100168.78
2024-05-09T17:23:04.946Z,100167.52
2024-05-09T17:25:32.517Z,100169.69
2024-05-09T17:28:06.199Z,100168.61
2024-05-09T17:30:36.828Z,100170.55
2024-05-09T17:33:06.853Z,100172.30
2024-05-09T17:35:35.060Z,100178.38
2024-05-09T17:38:01.903Z,100176.31
2024-05-09T17:40:33.639Z,100180.16
2024-05-09T17:43:04.454Z,100181.09
2024-05-09T17:45:32.230Z,100185.40
2024-05-09T17:47:59.630Z,100186.20
2024-05-09T17:50:31.869Z,100187.32
2024-05-09T17:53:03.008Z,100188.06
2024-05-09T17:55:30.026Z,100187.43
2024-05-09T17:57:57.169Z,100190.06
2024-05-09T18:00:36.121Z,100192.24
2024-05-09T18:03:07.383Z,100190.36
2024-05-09T18:05:37.865Z,100195.56
2024-05-09T18:08:06.309Z,100193.05
2024-05-09T18:10:37.164Z,100194.89
2024-05-09T18:13:09.728Z,100195.60
2024-05-09T18:15:37.017Z,100197.78
2024-05-09T18:18:04.595Z,100198.95
2024-05-09T18:20:40.332Z,100198.27
2024-05-09T18:23:12.324Z,100200.31
2024-05-09T18:25:38.939Z,100201.75
2024-05-09T18:28:06.392Z,100202.33
2024-05-09T18:30:35.894Z,100202.21
2024-05-09T18:33:05.868Z,100202.76
2024-05-09T18:35:33.981Z,100201.56
2024-05-09T18:38:00.584Z,100200.19
2024-05-09T18:40:32.991Z,100200.92
2024-05-09T18:43:04.161Z,100202.91
2024-05-09T18:45:31.242Z,100202.53
2024-05-09T18:47:58.316Z,100206.00
2024-05-09T18:50:33.993Z,100209.98
2024-05-09T18:53:12.210Z,100209.17
2024-05-09T18:55:41.104Z,100214.16
2024-05-09T18:58:07.888Z,100215.94
2024-05-09T19:00:38.431Z,100220.43
2024-05-09T19:03:10.484Z,100225.22
2024-05-09T19:05:40.491Z,100228.57
2024-05-09T19:08:08.186Z,100230.77
2024-05-09T19:10:37.081Z,100229.46
2024-05-09T19:13:07.167Z,100229.46
2024-05-09T19:15:38.085Z,100228.95
2024-05-09T19:18:05.775Z,100234.09
2024-05-09T19:20:35.209Z,100238.86
2024-05-09T19:23:03.969Z,100233.63
2024-05-09T19:25:31.686Z,100240.27
2024-05-09T19:27:58.576Z,100242.39
2024-05-09T19:30:34.628Z,100240.52
2024-05-09T19:33:07.590Z,100240.73
2024-05-09T19:35:34.778Z,100240.92
2024-05-09T19:38:01.821Z,100241.15
2024-05-09T19:40:32.063Z,100240.52
2024-05-09T19:43:02.152Z,100246.23
2024-05-09T19:45:30.692Z,100242.55
2024-05-09T19:47:57.861Z,100241.90
2024-05-09T19:50:32.478Z,100244.91
2024-05-09T19:53:07.972Z,100249.63
2024-05-09T19:55:35.104Z,100247.98
2024-05-09T19:58:05.190Z,100249.85
2024-05-09T20:00:39.378Z,100246.46
2024-05-09T20:03:09.280Z,100248.84
2024-05-09T20:05:37.127Z,100252.61
2024-05-09T20:08:04.919Z,100254.84
2024-05-09T20:10:35.199Z,100253.78
2024-05-09T20:13:07.483Z,100252.36
2024-05-09T20:15:35.334Z,100251.30
2024-05-09T20:18:03.330Z,100250.09
2024-05-09T20:20:37.644Z,100248.73
2024-05-09T20:23:09.542Z,100249.45
2024-05-09T20:25:37.230Z,100249.26
2024-05-09T20:28:04.954Z,100255.26
2024-05-09T20:30:35.743Z,100257.71
2024-05-09T20:33:04.534Z,100255.98
2024-05-09T20:35:32.956Z,100260.94
2024-05-09T20:38:00.723Z,100259.81
2024-05-09T20:40:32.684Z,100260.15
2024-05-09T20:43:03.702Z,100259.59
2024-05-09T20:45:30.930Z,100260.30
2024-05-09T20:47:57.993Z,100259.63
2024-05-09T20:50:35.522Z,100257.12
2024-05-09T20:53:08.568Z,100256.40
2024-05-09T20:55:36.265Z,100258.60
2024-05-09T20:58:03.082Z,100255.58
2024-05-09T21:00:38.786Z,100257.83
2024-05-09T21:03:09.857Z,100257.08
2024-05-09T21:05:37.529Z,100257.16
2024-05-09T21:08:05.212Z,100259.67
2024-05-09T21:10:33.638Z,100259.45
2024-05-09T21:13:02.551Z,100255.03
2024-05-09T21:15:30.702Z,100254.91
2024-05-09T21:17:57.877Z,100258.20
2024-05-09T21:20:30.915Z,100259.17
2024-05-09T21:22:59.544Z,100258.36
2024-05-09T21:25:26.473Z,100261.48
2024-05-09T21:27:53.798Z,100263.55
2024-05-09T21:30:31.627Z,100268.25
2024-05-09T21:33:08.443Z,100271.41
2024-05-09T21:35:35.958Z,100274.08
2024-05-09T21:38:04.278Z,100275.92
2024-05-09T21:40:34.633Z,100282.27
2024-05-09T21:43:04.015Z,100284.45
2024-05-09T21:45:32.082Z,100286.60
2024-05-09T21:47:59.305Z,100287.50
2024-05-09T21:50:32.067Z,100288.35
2024-05-09T21:53:05.807Z,100285.52
2024-05-09T21:55:33.372Z,100287.27
2024-05-09T21:58:00.283Z,100289.24
2024-05-09T22:00:34.752Z,100291.02
2024-05-09T22:03:05.481Z,100289.86
2024-05-09T22:05:32.469Z,100288.64
2024-05-09T22:07:59.535Z,100291.59
2024-05-09T22:10:32.822Z,100291.45
2024-05-09T22:13:02.273Z,100295.02
2024-05-09T22:15:29.246Z,100294.30
2024-05-09T22:17:57.181Z,100294.49
2024-05-09T22:20:33.475Z,100296.16
2024-05-09T22:23:04.453Z,100298.52
2024-05-09T22:25:32.328Z,100296.58
2024-05-09T22:28:02.093Z,100299.86
2024-05-09T22:32:58.923Z,100298.58
2024-05-09T22:35:25.657Z,100296.02
2024-05-09T22:37:52.470Z,100299.17
2024-05-09T22:40:28.843Z,100296.89
2024-05-09T22:43:05.616Z,100296.58
2024-05-09T22:45:32.718Z,100293.96
2024-05-09T22:47:59.821Z,100292.39
2024-05-09T22:50:32.501Z,100289.86
2024-05-09T22:53:00.221Z,100289.38
2024-05-09T22:55:26.919Z,100291.31
2024-05-09T22:57:53.583Z,100291.89
2024-05-09T23:00:29.171Z,100290.46
2024-05-09T23:03:02.352Z,100287.24
2024-05-09T23:05:30.503Z,100288.55
2024-05-09T23:07:57.500Z,100288.61
2024-05-09T23:10:31.656Z,100289.13
2024-05-09T23:13:03.137Z,100287.07
2024-05-09T23:15:30.268Z,100288.98
2024-05-09T23:17:57.352Z,100286.02
2024-05-09T23:22:54.759Z,100290.46
2024-05-09T23:25:21.461Z,100288.42
2024-05-09T23:27:48.208Z,100287.41
2024-05-09T23:30:25.428Z,100289.70
2024-05-09T23:32:56.116Z,100285.52
2024-05-09T23:35:23.184Z,100288.55
2024-05-09T23:37:49.815Z,100286.92
2024-05-09T23:40:19.054Z,100288.09
2024-05-09T23:42:49.401Z,100284.40
2024-05-09T23:45:16.303Z,100282.73
2024-05-09T23:47:43.131Z,100284.33
2024-05-09T23:50:16.723Z,100283.95
2024-05-09T23:52:50.217Z,100282.71
2024-05-09T23:55:17.770Z,100284.11
2024-05-09T23:57:44.953Z,100283.41
